Time;durP1;ratioP1;P1;durP2;ratioP2;P2;SDS_P1;SDS_P2;PMS_P1;PMS_P2;Temp;Humidity;BMP_temperature;BMP_pressure;BME280_temperature;BME280_humidity;BME280_pressure;Samples;Min_cycle;Max_cycle;Signal;HPM_P1;HPM_P2
2022/05/16 00:00:44;;;;;;;0.40;0.40;;;;;;;11.01;77.24;101185.16;5036097;28;20253;-70
2022/05/16 00:03:12;;;;;;;0.30;0.30;;;;;;;11.02;77.13;101186.00;5039748;28;20727;-69
2022/05/16 00:05:38;;;;;;;0.10;0.10;;;;;;;11.02;77.00;101196.44;5037237;28;20191;-69
2022/05/16 00:08:05;;;;;;;0.30;0.30;;;;;;;11.06;76.53;101192.88;5045238;28;20215;-70
2022/05/16 00:10:32;;;;;;;0.40;0.40;;;;;;;11.05;76.61;101188.56;5039953;28;20234;-69
2022/05/16 00:12:59;;;;;;;0.30;0.30;;;;;;;11.02;78.69;101188.63;5048158;28;20197;-70
2022/05/16 00:15:26;;;;;;;0.20;0.20;;;;;;;10.97;77.55;101199.97;5036212;28;20225;-69
2022/05/16 00:17:53;;;;;;;0.30;0.30;;;;;;;10.96;77.87;101205.25;5040015;28;20210;-70
2022/05/16 00:20:21;;;;;;;0.30;0.30;;;;;;;10.93;78.26;101202.69;5039922;28;20903;-69
2022/05/16 00:22:48;;;;;;;0.30;0.30;;;;;;;11.00;85.65;101193.84;5047762;28;20191;-69
2022/05/16 00:25:16;;;;;;;0.60;0.60;;;;;;;10.89;85.66;101193.22;5036210;28;20194;-70
2022/05/16 00:27:42;;;;;;;0.30;0.30;;;;;;;10.79;85.41;101195.09;5032876;28;20208;-70
2022/05/16 00:30:12;;;;;;;0.47;0.47;;;;;;;10.73;87.55;101187.38;5038320;28;20846;-70
2022/05/16 00:32:39;;;;;;;0.50;0.50;;;;;;;10.68;88.91;101190.09;5042315;28;20205;-69
2022/05/16 00:35:10;;;;;;;0.30;0.30;;;;;;;10.51;85.25;101197.34;5042598;28;20270;-69
2022/05/16 00:37:38;;;;;;;0.27;0.27;;;;;;;10.37;85.81;101194.94;5030906;28;20656;-70
2022/05/16 00:40:06;;;;;;;0.33;0.33;;;;;;;10.30;88.89;101196.75;5039127;28;20224;-70
2022/05/16 00:42:32;;;;;;;0.40;0.40;;;;;;;10.26;90.43;101194.25;5047436;28;20209;-70
2022/05/16 00:44:59;;;;;;;0.40;0.40;;;;;;;10.12;89.50;101197.91;5046722;28;20551;-69
2022/05/16 00:47:25;;;;;;;0.23;0.23;;;;;;;10.14;92.90;101196.13;5042625;28;20210;-69
2022/05/16 00:49:54;;;;;;;0.40;0.40;;;;;;;10.01;92.56;101198.06;5040964;28;20703;-70
2022/05/16 00:52:24;;;;;;;0.23;0.23;;;;;;;9.96;94.25;101202.47;5037556;28;20227;-71
2022/05/16 00:54:56;;;;;;;0.60;0.60;;;;;;;9.90;94.99;101196.50;5039769;28;20266;-70
2022/05/16 00:57:25;;;;;;;0.30;0.30;;;;;;;9.91;96.77;101196.47;5044651;28;20296;-71
2022/05/16 00:59:56;;;;;;;0.23;0.23;;;;;;;9.91;96.72;101204.28;5040112;28;20236;-69
2022/05/16 01:05:09;;;;;;;0.43;0.43;;;;;;;9.86;98.60;101204.34;5042244;28;20196;-69
2022/05/16 01:07:39;;;;;;;0.40;0.40;;;;;;;9.75;96.10;101210.59;5036932;28;20989;-68
2022/05/16 01:10:09;;;;;;;0.30;0.30;;;;;;;9.69;96.20;101213.28;5042211;28;20211;-69
2022/05/16 01:12:39;;;;;;;0.50;0.50;;;;;;;9.71;98.42;101207.19;5035541;28;20207;-69
2022/05/16 01:15:08;;;;;;;0.57;0.53;;;;;;;9.73;99.24;101207.16;5033947;28;20575;-70
2022/05/16 01:17:35;;;;;;;0.30;0.30;;;;;;;9.45;92.70;101210.13;5038350;28;20196;-69
2022/05/16 01:20:01;;;;;;;0.50;0.50;;;;;;;9.39;93.25;101212.78;5036074;28;20220;-71
2022/05/16 01:22:33;;;;;;;0.30;0.30;;;;;;;9.55;98.65;101198.72;5037776;28;20836;-69
2022/05/16 01:25:04;;;;;;;0.60;0.60;;;;;;;9.44;97.15;101211.84;5041059;28;20206;-69
2022/05/16 01:27:40;;;;;;;0.30;0.30;;;;;;;9.50;99.59;101208.31;5037247;28;20204;-69
2022/05/16 01:30:08;;;;;;;0.40;0.40;;;;;;;9.49;100.00;101203.97;5036895;28;20223;-71
2022/05/16 01:32:34;;;;;;;0.30;0.30;;;;;;;9.48;100.00;101203.13;5045799;28;20210;-70
2022/05/16 01:35:01;;;;;;;0.33;0.33;;;;;;;9.38;99.01;101209.31;5038017;28;20574;-69
2022/05/16 01:38:18;;;;;;;0.50;0.50;;;;;;;9.31;96.87;101210.28;5047353;28;20962;-68
2022/05/16 01:40:15;;;;;;;0.40;0.40;;;;;;;9.19;94.01;101205.22;5043001;28;20634;-71
2022/05/16 01:42:42;;;;;;;0.40;0.40;;;;;;;9.27;97.53;101206.00;5034765;28;20630;-71
2022/05/16 01:45:09;;;;;;;0.37;0.37;;;;;;;9.38;100.00;101200.66;5045403;28;20192;-70
2022/05/16 01:47:36;;;;;;;0.40;0.40;;;;;;;9.15;93.78;101203.53;5044333;28;20204;-69
2022/05/16 01:50:03;;;;;;;0.30;0.30;;;;;;;9.13;94.04;101198.34;5041802;28;20227;-70
2022/05/16 01:52:29;;;;;;;0.40;0.40;;;;;;;9.16;95.71;101190.47;5030362;28;20675;-69
2022/05/16 01:54:56;;;;;;;0.40;0.40;;;;;;;9.14;96.68;101192.25;5034734;28;20216;-69
2022/05/16 01:57:23;;;;;;;0.30;0.30;;;;;;;9.13;96.92;101195.75;5037260;28;20207;-68
2022/05/16 01:59:50;;;;;;;0.43;0.43;;;;;;;9.25;100.00;101192.13;5034823;28;20263;-70
2022/05/16 02:02:16;;;;;;;0.40;0.40;;;;;;;9.26;100.00;101189.50;5039871;28;20199;-69
2022/05/16 02:04:43;;;;;;;0.40;0.40;;;;;;;9.20;100.00;101191.31;5042571;28;20204;-69
2022/05/16 02:07:09;;;;;;;0.30;0.30;;;;;;;9.26;100.00;101186.91;5045463;28;20191;-70
2022/05/16 02:09:35;;;;;;;0.30;0.30;;;;;;;9.18;100.00;101182.66;5045297;28;20242;-70
2022/05/16 02:12:02;;;;;;;0.40;0.40;;;;;;;9.24;100.00;101190.41;5034658;28;20211;-70
2022/05/16 02:14:30;;;;;;;0.30;0.30;;;;;;;9.12;100.00;101183.59;5046337;28;20690;-71
2022/05/16 02:16:56;;;;;;;0.30;0.30;;;;;;;9.07;100.00;101181.03;5034839;28;20203;-70
2022/05/16 02:19:23;;;;;;;0.40;0.37;;;;;;;9.02;100.00;101184.56;5035000;28;20591;-70
2022/05/16 02:25:12;;;;;;;0.30;0.30;;;;;;;9.03;100.00;101183.69;5040888;28;20199;-69
2022/05/16 02:28:01;;;;;;;0.50;0.50;;;;;;;8.90;99.63;101183.84;5040834;28;20199;-69
2022/05/16 02:30:46;;;;;;;0.20;0.20;;;;;;;8.81;94.57;101189.13;5036449;28;20216;-69
2022/05/16 02:33:46;;;;;;;0.40;0.40;;;;;;;8.83;95.40;101183.88;5038192;28;20214;-70
2022/05/16 02:36:42;;;;;;;0.47;0.47;;;;;;;8.88;94.29;101184.72;5040503;28;20243;-69
2022/05/16 02:42:30;;;;;;;0.33;0.33;;;;;;;8.97;91.93;101178.56;5043163;28;20183;-68
2022/05/16 02:45:15;;;;;;;0.40;0.40;;;;;;;8.99;90.98;101175.06;5041039;28;20203;-69
2022/05/16 02:47:57;;;;;;;0.40;0.40;;;;;;;9.03;90.48;101166.34;5040242;28;20797;-69
2022/05/16 02:50:33;;;;;;;0.30;0.30;;;;;;;9.10;89.97;101172.34;5036161;28;20242;-70
2022/05/16 02:53:31;;;;;;;0.40;0.40;;;;;;;9.23;88.13;101165.25;5037523;28;20593;-69
2022/05/16 02:56:08;;;;;;;0.30;0.30;;;;;;;9.22;88.72;101160.94;5039927;28;20563;-69
2022/05/16 02:58:44;;;;;;;0.30;0.30;;;;;;;9.22;89.16;101158.34;5039653;28;20223;-70
2022/05/16 03:01:23;;;;;;;0.20;0.20;;;;;;;9.20;87.90;101153.16;5041165;28;20302;-70
2022/05/16 03:04:08;;;;;;;;;;;;;;;;;;;;;
2022/05/16 03:07:08;;;;;;;0.30;0.30;;;;;;;9.31;87.30;101160.81;5043291;28;20220;-69
2022/05/16 03:09:42;;;;;;;0.30;0.30;;;;;;;9.31;86.94;101158.22;5042280;28;20226;-69
2022/05/16 03:12:16;;;;;;;0.50;0.50;;;;;;;9.27;87.61;101149.59;5038342;28;20669;-69
2022/05/16 03:14:50;;;;;;;0.40;0.40;;;;;;;9.29;88.04;101149.59;5039295;28;20207;-70
2022/05/16 03:17:32;;;;;;;0.40;0.40;;;;;;;9.27;87.89;101149.59;5028884;28;20305;-68
2022/05/16 03:20:33;;;;;;;0.60;0.60;;;;;;;9.28;90.16;101143.50;5038205;28;20223;-69
2022/05/16 03:23:04;;;;;;;0.47;0.47;;;;;;;9.28;87.59;101147.84;5046222;28;20213;-69
2022/05/16 03:25:49;;;;;;;0.67;0.53;;;;;;;9.27;88.52;101146.16;5046499;28;20219;-70
2022/05/16 03:28:23;;;;;;;0.97;0.97;;;;;;;9.26;87.20;101144.41;5038382;28;20226;-71
2022/05/16 03:31:03;;;;;;;0.30;0.30;;;;;;;9.34;88.88;101144.31;5049785;28;20335;-69
2022/05/16 03:33:40;;;;;;;0.30;0.30;;;;;;;9.35;88.92;101143.44;5046690;28;20237;-68
2022/05/16 03:36:15;;;;;;;0.60;0.60;;;;;;;9.36;88.80;101139.97;5035400;28;20238;-68
2022/05/16 03:41:50;;;;;;;0.30;0.30;;;;;;;9.38;87.44;101146.00;4982072;28;20197;-69
2022/05/16 03:44:30;;;;;;;1.67;0.60;;;;;;;9.39;87.22;101151.19;4983827;28;20713;-70
2022/05/16 03:47:05;;;;;;;0.43;0.43;;;;;;;9.39;88.38;101155.50;5018099;28;20210;-71
2022/05/16 03:49:34;;;;;;;0.57;0.57;;;;;;;9.33;87.21;101151.25;5045840;28;20713;-68
2022/05/16 03:52:09;;;;;;;0.37;0.37;;;;;;;9.32;87.52;101151.28;5039605;28;20667;-69
2022/05/16 03:54:58;;;;;;;0.60;0.60;;;;;;;9.33;87.48;101155.59;5040754;28;20268;-68
2022/05/16 03:57:47;;;;;;;0.50;0.50;;;;;;;9.36;86.95;101152.97;5036928;28;20266;-69
2022/05/16 04:00:16;;;;;;;0.50;0.50;;;;;;;9.43;87.86;101154.63;5043930;28;20227;-71
2022/05/16 04:03:11;;;;;;;0.77;0.40;;;;;;;9.44;87.37;101153.72;5037958;28;20700;-69
2022/05/16 04:06:09;;;;;;;0.50;0.50;;;;;;;9.48;87.99;101153.66;5037639;28;20713;-70
2022/05/16 04:08:50;;;;;;;0.30;0.30;;;;;;;9.68;91.07;101146.47;5039580;28;20755;-68
2022/05/16 04:11:28;;;;;;;0.50;0.50;;;;;;;9.73;88.00;101158.53;5038320;28;20662;-69
2022/05/16 04:14:09;;;;;;;0.30;0.30;;;;;;;9.82;86.34;101152.34;5040301;28;20596;-70
2022/05/16 04:16:56;;;;;;;0.43;0.43;;;;;;;9.91;86.85;101143.53;5036357;28;20696;-72
2022/05/16 04:19:31;;;;;;;1.07;0.90;;;;;;;9.99;85.71;101155.56;5038026;28;20311;-69
2022/05/16 04:22:37;;;;;;;;;;;;;;;;;;;;;
2022/05/16 04:28:20;;;;;;;0.50;0.50;;;;;;;10.32;83.44;101170.69;5039340;28;20205;-70
2022/05/16 04:30:52;;;;;;;0.30;0.30;;;;;;;10.40;82.32;101161.03;5033658;28;20311;-69
2022/05/16 04:33:33;;;;;;;0.50;0.50;;;;;;;10.49;81.77;101158.25;5035859;28;20719;-69
2022/05/16 04:36:12;;;;;;;0.30;0.30;;;;;;;10.60;81.70;101158.06;5036966;28;20250;-70
2022/05/16 04:38:45;;;;;;;0.60;0.60;;;;;;;10.66;80.65;101157.09;5038380;28;20242;-70
2022/05/16 04:44:38;;;;;;;0.30;0.30;;;;;;;10.82;80.19;101155.94;5036396;28;20340;-71
2022/05/16 04:47:06;;;;;;;1.10;0.47;;;;;;;10.88;78.74;101158.41;5044400;28;20200;-71
2022/05/16 04:49:33;;;;;;;0.30;0.30;;;;;;;10.96;79.46;101159.13;5035216;28;20261;-70
2022/05/16 04:51:59;;;;;;;0.37;0.37;;;;;;;11.01;77.92;101161.66;5037150;28;20217;-70
2022/05/16 04:54:48;;;;;;;0.60;0.60;;;;;;;11.12;77.97;101169.28;5036613;28;20228;-69
2022/05/16 04:57:26;;;;;;;1.53;0.40;;;;;;;11.18;78.13;101170.00;5033377;28;20206;-68
2022/05/16 05:00:08;;;;;;;2.07;0.50;;;;;;;11.25;76.52;101175.09;5037566;28;20581;-69
2022/05/16 05:02:38;;;;;;;0.70;0.70;;;;;;;11.32;75.89;101174.09;5036957;28;20258;-71
2022/05/16 05:05:05;;;;;;;0.50;0.50;;;;;;;11.35;75.69;101177.50;5037005;28;20244;-69
2022/05/16 05:07:32;;;;;;;0.30;0.30;;;;;;;11.48;75.23;101185.91;5035943;28;20212;-71
2022/05/16 05:15:29;;;;;;;2.10;0.53;;;;;;;11.76;74.50;101177.50;5041455;28;20748;-72
2022/05/16 05:17:55;;;;;;;0.77;0.53;;;;;;;11.79;73.52;101184.44;5043373;28;20203;-71
2022/05/16 05:20:22;;;;;;;0.37;0.37;;;;;;;11.90;73.65;101179.81;5036029;28;20281;-72
2022/05/16 05:22:49;;;;;;;0.30;0.30;;;;;;;11.97;72.76;101186.63;5041595;28;20295;-71
2022/05/16 05:25:18;;;;;;;0.60;0.60;;;;;;;12.03;72.44;101181.28;5038715;28;20318;-70
2022/05/16 05:27:48;;;;;;;1.10;1.10;;;;;;;12.13;72.20;101180.16;5037417;28;20678;-72
2022/05/16 05:30:18;;;;;;;0.33;0.33;;;;;;;12.24;72.25;101179.03;5034263;28;20448;-71
2022/05/16 05:32:45;;;;;;;0.43;0.40;;;;;;;12.35;71.92;101179.66;5041765;28;20281;-71
2022/05/16 05:35:12;;;;;;;0.20;0.20;;;;;;;12.48;70.97;101180.19;5033366;28;20216;-72
2022/05/16 05:37:39;;;;;;;0.73;0.50;;;;;;;12.56;70.12;101185.22;5035444;28;20203;-71
2022/05/16 05:40:08;;;;;;;0.53;0.53;;;;;;;12.65;70.73;101177.16;5038236;28;20551;-71
2022/05/16 05:42:35;;;;;;;0.40;0.40;;;;;;;12.76;69.96;101180.34;5036555;28;20273;-70
2022/05/16 05:45:04;;;;;;;0.30;0.30;;;;;;;12.83;70.29;101174.03;5031773;28;20659;-71
2022/05/16 05:47:30;;;;;;;0.33;0.33;;;;;;;12.92;68.86;101182.56;5036307;28;20197;-69
2022/05/16 05:49:59;;;;;;;0.20;0.20;;;;;;;13.03;68.17;101173.53;5035541;28;20335;-72
2022/05/16 05:52:28;;;;;;;0.20;0.20;;;;;;;13.19;68.63;101175.69;5036909;28;20214;-71
2022/05/16 05:54:55;;;;;;;0.30;0.30;;;;;;;13.35;68.36;101171.78;5034100;28;20261;-72
2022/05/16 05:57:22;;;;;;;0.00;0.00;;;;;;;13.47;66.86;101173.16;5029602;28;20460;-70
2022/05/16 05:59:48;;;;;;;0.30;0.30;;;;;;;13.54;66.71;101169.47;5034106;28;20228;-71
2022/05/16 06:02:16;;;;;;;0.23;0.23;;;;;;;13.59;67.13;101172.81;5025361;28;20220;-71
2022/05/16 06:04:42;;;;;;;0.40;0.40;;;;;;;13.75;66.47;101172.34;5032590;28;20200;-71
2022/05/16 06:07:09;;;;;;;0.30;0.30;;;;;;;13.88;66.70;101168.44;5037656;28;20810;-70
2022/05/16 06:09:35;;;;;;;0.30;0.30;;;;;;;14.04;65.95;101170.59;5032962;28;20287;-73
2022/05/16 06:12:05;;;;;;;0.30;0.30;;;;;;;14.19;66.07;101173.59;5037719;28;20201;-70
2022/05/16 06:14:32;;;;;;;0.70;0.30;;;;;;;14.38;64.38;101179.06;5037769;28;20979;-70
2022/05/16 06:16:58;;;;;;;0.20;0.20;;;;;;;14.55;64.88;101165.38;5033274;28;20596;-70
2022/05/16 06:19:27;;;;;;;0.30;0.27;;;;;;;14.66;63.66;101172.06;5031978;28;20795;-70
2022/05/16 06:21:53;;;;;;;4.37;0.80;;;;;;;14.76;63.46;101174.31;5035004;28;20212;-69
2022/05/16 06:27:07;;;;;;;0.23;0.23;;;;;;;14.83;61.35;101177.59;5035367;28;20202;-72
2022/05/16 06:29:36;;;;;;;0.10;0.10;;;;;;;14.91;61.98;101174.69;5029043;28;20292;-69
2022/05/16 06:32:04;;;;;;;0.20;0.20;;;;;;;15.04;60.77;101180.34;5037437;28;20199;-69
2022/05/16 06:34:33;;;;;;;0.10;0.10;;;;;;;15.25;60.65;101171.69;5036057;28;20188;-70
2022/05/16 06:37:13;;;;;;;0.50;0.37;;;;;;;15.35;60.28;101169.56;5031102;28;20260;-70
2022/05/16 06:40:05;;;;;;;0.10;0.10;;;;;;;15.49;61.27;101163.81;5035799;28;20222;-69
2022/05/16 06:42:44;;;;;;;0.23;0.10;;;;;;;15.64;59.89;101165.00;5034094;28;20755;-69
2022/05/16 06:45:15;;;;;;;0.50;0.37;;;;;;;15.79;59.20;101171.44;5035124;28;20662;-69
2022/05/16 06:47:44;;;;;;;0.10;0.10;;;;;;;15.90;57.50;101180.63;5035114;28;20228;-69
2022/05/16 06:50:12;;;;;;;0.10;0.10;;;;;;;16.00;57.85;101183.75;5037424;28;20226;-69
2022/05/16 06:52:39;;;;;;;0.40;0.40;;;;;;;16.04;57.63;101177.47;5037036;28;20574;-69
2022/05/16 06:55:06;;;;;;;0.10;0.10;;;;;;;16.12;57.18;101174.50;5037230;28;20279;-71
2022/05/16 06:57:33;;;;;;;0.90;0.50;;;;;;;16.19;57.26;101172.50;5037710;28;20318;-70
2022/05/16 06:59:59;;;;;;;0.43;0.43;;;;;;;16.26;56.29;101174.81;5037370;28;20215;-69
2022/05/16 07:02:26;;;;;;;0.17;0.17;;;;;;;16.42;57.16;101168.91;5038917;28;20196;-70
2022/05/16 07:04:55;;;;;;;0.00;0.00;;;;;;;16.56;55.27;101163.91;5040797;28;20242;-70
2022/05/16 07:07:23;;;;;;;0.10;0.10;;;;;;;16.61;55.13;101167.22;5040943;28;20280;-70
2022/05/16 07:09:54;;;;;;;0.10;0.00;;;;;;;16.71;55.16;101167.69;5039976;28;20307;-70
2022/05/16 07:12:23;;;;;;;0.40;0.27;;;;;;;16.89;55.95;101176.59;5039975;28;20192;-71
2022/05/16 07:14:49;;;;;;;0.13;0.10;;;;;;;17.03;55.61;101171.56;5037818;28;20269;-71
2022/05/16 07:17:32;;;;;;;0.30;0.30;;;;;;;17.21;55.13;101172.50;5038979;28;20221;-69
2022/05/16 07:22:58;;;;;;;0.13;0.10;;;;;;;17.51;53.63;101164.13;5037627;28;20207;-70
2022/05/16 07:28:44;;;;;;;0.23;0.20;;;;;;;17.64;53.06;101158.25;5041188;28;20214;-70
2022/05/16 07:31:27;;;;;;;0.30;0.30;;;;;;;17.72;53.96;101151.69;5034978;28;20280;-70
2022/05/16 07:33:57;;;;;;;0.20;0.20;;;;;;;17.85;53.32;101156.38;5036861;28;20735;-71
2022/05/16 07:36:28;;;;;;;1.73;0.40;;;;;;;18.02;50.91;101156.47;5041044;28;20219;-71
2022/05/16 07:39:03;;;;;;;0.40;0.40;;;;;;;18.12;53.48;101147.16;5042001;28;20288;-71
2022/05/16 07:41:32;;;;;;;0.30;0.30;;;;;;;18.32;52.07;101159.34;5039014;28;20233;-70
2022/05/16 07:44:08;;;;;;;0.00;0.00;;;;;;;18.37;51.70;101153.84;5037785;28;20274;-71
2022/05/16 07:46:40;;;;;;;0.20;0.20;;;;;;;18.45;51.50;101153.47;5036846;28;20670;-70
2022/05/16 07:49:21;;;;;;;0.10;0.10;;;;;;;18.66;49.83;101160.31;5031201;28;20234;-70
2022/05/16 07:51:55;;;;;;;0.77;0.60;;;;;;;18.83;49.97;101164.72;5034235;28;20577;-70
2022/05/16 07:54:29;;;;;;;0.10;0.10;;;;;;;18.97;50.89;101173.72;5040825;28;20191;-71
2022/05/16 08:00:04;;;;;;;0.10;0.10;;;;;;;19.11;48.17;101174.69;5040886;28;20215;-71
2022/05/16 08:02:48;;;;;;;0.30;0.30;;;;;;;19.25;47.21;101173.13;5033958;28;20283;-71
2022/05/16 08:05:25;;;;;;;0.40;0.33;;;;;;;19.36;46.76;101169.88;5036365;28;20270;-71
2022/05/16 08:11:00;;;;;;;0.10;0.10;;;;;;;19.45;46.04;101164.97;5038039;28;20354;-70
2022/05/16 08:13:32;;;;;;;0.40;0.40;;;;;;;19.52;46.15;101162.81;5029054;28;20567;-70
2022/05/16 08:16:09;;;;;;;0.17;0.17;;;;;;;19.72;45.46;101164.38;5032676;28;20227;-71
2022/05/16 08:19:01;;;;;;;0.83;0.20;;;;;;;19.79;45.95;101163.13;5038503;28;20221;-70
2022/05/16 08:21:36;;;;;;;0.37;0.23;;;;;;;19.95;46.28;101163.09;5041786;28;20210;-71
2022/05/16 08:24:11;;;;;;;0.10;0.10;;;;;;;20.06;46.23;101167.78;5035020;28;20199;-69
2022/05/16 08:26:50;;;;;;;0.20;0.20;;;;;;;20.24;45.34;101161.44;5033636;28;20206;-69
2022/05/16 08:29:21;;;;;;;0.40;0.40;;;;;;;20.36;44.95;101161.63;5041717;28;20289;-71
2022/05/16 08:31:55;;;;;;;0.10;0.10;;;;;;;20.48;46.69;101157.41;5038925;28;20195;-70
2022/05/16 08:34:32;;;;;;;0.37;0.20;;;;;;;20.66;45.12;101156.34;5038031;28;20206;-71
2022/05/16 08:40:03;;;;;;;0.37;0.37;;;;;;;20.81;43.91;101162.53;5035592;28;20257;-72
2022/05/16 08:42:47;;;;;;;0.60;0.30;;;;;;;20.92;42.26;101168.00;5033792;28;20666;-71
2022/05/16 08:45:17;;;;;;;0.40;0.10;;;;;;;20.92;44.03;101149.47;5039441;28;20207;-70
2022/05/16 08:47:53;;;;;;;0.00;0.00;;;;;;;21.10;41.48;101158.06;5034971;28;20212;-71
2022/05/16 08:50:25;;;;;;;0.17;0.17;;;;;;;21.12;41.54;101153.50;5034091;28;20305;-69
2022/05/16 08:53:00;;;;;;;2.00;0.40;;;;;;;21.37;42.46;101157.28;5035756;28;20211;-70
2022/05/16 08:55:32;;;;;;;0.13;0.07;;;;;;;21.26;39.56;101154.47;5032630;28;20249;-71
2022/05/16 08:58:06;;;;;;;0.30;0.20;;;;;;;21.35;39.97;101149.44;5034319;28;20571;-71
2022/05/16 09:00:36;;;;;;;0.00;0.00;;;;;;;21.54;40.72;101149.13;5034452;28;20224;-71
2022/05/16 09:03:07;;;;;;;0.30;0.20;;;;;;;21.64;38.91;101141.44;5033132;28;20287;-69
2022/05/16 09:05:38;;;;;;;0.50;0.30;;;;;;;21.66;39.18;101149.31;5031314;28;20613;-70
2022/05/16 09:08:11;;;;;;;0.30;0.17;;;;;;;21.78;38.61;101140.56;5037506;28;20206;-71
2022/05/16 09:10:57;;;;;;;0.10;0.10;;;;;;;21.81;37.47;101147.44;5037880;28;20273;-71
2022/05/16 09:13:38;;;;;;;0.70;0.40;;;;;;;21.95;37.86;101142.09;5035048;28;20198;-71
2022/05/16 09:16:10;;;;;;;0.03;0.03;;;;;;;22.12;37.75;101135.66;5039881;28;20667;-72
2022/05/16 09:18:43;;;;;;;1.43;0.20;;;;;;;22.03;37.74;101138.94;5030439;28;20623;-69
2022/05/16 09:21:14;;;;;;;0.20;0.20;;;;;;;22.09;39.25;101131.44;5034291;28;20223;-71
2022/05/16 09:23:48;;;;;;;2.23;0.40;;;;;;;22.08;40.30;101126.22;5029746;28;20289;-71
2022/05/16 09:26:26;;;;;;;0.00;0.00;;;;;;;22.29;40.38;101123.97;5033075;28;20204;-70
2022/05/16 09:28:59;;;;;;;0.00;0.00;;;;;;;22.42;39.13;101123.97;5037557;28;20260;-71
2022/05/16 09:31:30;;;;;;;0.10;0.10;;;;;;;22.56;39.04;101125.69;5038223;28;20926;-71
2022/05/16 09:34:00;;;;;;;0.20;0.20;;;;;;;22.64;35.46;101132.16;5036688;28;20624;-69
2022/05/16 09:36:32;;;;;;;0.67;0.57;;;;;;;22.71;36.04;101121.97;5035701;28;20281;-71
2022/05/16 09:38:59;;;;;;;0.10;0.10;;;;;;;22.85;36.86;101121.84;5037696;28;20208;-70
2022/05/16 09:41:36;;;;;;;0.57;0.57;;;;;;;22.81;36.63;101125.69;5033688;28;20200;-71
2022/05/16 09:44:10;;;;;;;0.67;0.33;;;;;;;22.80;36.40;101123.97;5032392;28;20203;-70
2022/05/16 09:46:39;;;;;;;0.00;0.00;;;;;;;22.88;35.43;101124.31;5028732;28;20198;-71
2022/05/16 09:49:10;;;;;;;0.23;0.23;;;;;;;23.04;35.84;101132.06;5034871;28;20602;-71
2022/05/16 09:51:50;;;;;;;0.57;0.27;;;;;;;23.14;38.23;101118.97;5031342;28;20708;-71
2022/05/16 09:54:24;;;;;;;0.20;0.13;;;;;;;23.13;36.36;101111.09;5032376;28;20200;-71
2022/05/16 09:57:15;;;;;;;0.20;0.20;;;;;;;23.08;35.43;101115.88;5034311;28;20229;-70
2022/05/16 10:00:06;;;;;;;0.47;0.47;;;;;;;23.23;36.33;101112.97;5032126;28;20232;-69
2022/05/16 10:02:38;;;;;;;0.00;0.00;;;;;;;23.18;35.58;101107.16;5037192;28;20327;-70
2022/05/16 10:05:25;;;;;;;0.20;0.20;;;;;;;23.03;34.00;101105.56;5035943;28;20204;-70
2022/05/16 10:08:14;;;;;;;0.40;0.30;;;;;;;23.04;34.29;101099.28;5034914;28;20211;-70
2022/05/16 10:10:47;;;;;;;0.43;0.30;;;;;;;23.30;35.24;101099.25;5031890;28;20664;-71
2022/05/16 10:13:27;;;;;;;0.20;0.20;;;;;;;23.52;36.42;101095.88;5030729;28;20231;-72
2022/05/16 10:15:58;;;;;;;0.10;0.10;;;;;;;23.60;36.13;101093.50;5033182;28;20202;-70
2022/05/16 10:18:26;;;;;;;0.20;0.20;;;;;;;23.73;35.82;101090.78;5037421;28;20572;-73
2022/05/16 10:20:58;;;;;;;0.20;0.20;;;;;;;23.74;36.76;101089.81;5034851;28;20211;-69
2022/05/16 10:23:30;;;;;;;0.22;0.20;;;;;;;23.65;36.01;101088.69;5034403;28;20195;-70
2022/05/16 10:26:12;;;;;;;0.10;0.03;;;;;;;23.69;34.36;101089.31;5029288;28;20197;-71
2022/05/16 10:28:52;;;;;;;1.63;0.43;;;;;;;23.67;33.05;101097.41;5037820;28;20258;-69
2022/05/16 10:34:41;;;;;;;1.27;0.25;;;;;;;23.68;33.71;101082.31;5033411;28;20218;-71
2022/05/16 10:37:25;;;;;;;0.10;0.10;;;;;;;23.69;33.79;101079.50;5035514;28;20310;-69
2022/05/16 10:40:03;;;;;;;0.05;0.03;;;;;;;23.71;33.35;101074.06;5037538;28;20281;-71
2022/05/16 10:42:39;;;;;;;0.13;0.10;;;;;;;23.58;33.17;101068.81;5039820;28;20545;-70
2022/05/16 10:45:21;;;;;;;0.30;0.30;;;;;;;23.62;33.89;101065.81;5041794;28;20294;-70
2022/05/16 10:48:17;;;;;;;0.28;0.22;;;;;;;23.78;33.04;101059.31;5037762;28;20199;-70
2022/05/16 10:50:58;;;;;;;0.15;0.10;;;;;;;23.95;35.03;101053.63;5039051;28;20235;-72
2022/05/16 10:53:38;;;;;;;0.30;0.30;;;;;;;24.07;34.25;101054.50;5038929;28;20200;-70
2022/05/16 10:56:32;;;;;;;0.10;0.10;;;;;;;24.23;35.01;101048.00;5038391;28;20215;-69
2022/05/16 10:59:14;;;;;;;0.13;0.13;;;;;;;24.25;34.38;101046.06;5037626;28;20219;-70
2022/05/16 11:02:06;;;;;;;0.20;0.20;;;;;;;24.30;33.02;101044.75;5037569;28;20839;-69
2022/05/16 11:04:57;;;;;;;0.20;0.17;;;;;;;24.33;33.29;101041.00;5042011;28;20196;-70
2022/05/16 11:07:49;;;;;;;0.10;0.10;;;;;;;24.44;33.89;101035.66;5040731;28;20686;-70
2022/05/16 11:10:32;;;;;;;0.20;0.20;;;;;;;24.64;34.97;101041.28;5040372;28;20741;-72
2022/05/16 11:13:27;;;;;;;0.52;0.22;;;;;;;24.64;32.17;101044.78;5030261;28;20200;-70
2022/05/16 11:16:03;;;;;;;0.30;0.20;;;;;;;24.56;33.95;101039.22;5041293;28;20218;-70
2022/05/16 11:19:04;;;;;;;0.20;0.20;;;;;;;24.60;32.08;101034.50;5038990;28;20215;-71
2022/05/16 11:21:42;;;;;;;1.05;0.25;;;;;;;24.56;31.00;101040.06;5035564;28;20222;-70
2022/05/16 11:24:25;;;;;;;0.55;0.47;;;;;;;24.75;31.41;101034.13;5038869;28;20407;-72
2022/05/16 11:27:09;;;;;;;0.43;0.40;;;;;;;24.71;30.67;101027.38;5037866;28;20461;-69
2022/05/16 11:29:53;;;;;;;0.10;0.10;;;;;;;24.56;30.87;101018.75;5033051;28;20227;-70
2022/05/16 11:32:43;;;;;;;0.20;0.20;;;;;;;24.60;30.91;101021.19;5038263;28;20199;-70
2022/05/16 11:35:20;;;;;;;0.30;0.30;;;;;;;24.76;31.18;101024.31;5037103;28;20261;-69
2022/05/16 11:38:15;;;;;;;0.20;0.20;;;;;;;24.84;31.80;101015.72;5034159;28;20254;-70
2022/05/16 11:40:52;;;;;;;0.28;0.20;;;;;;;24.98;32.49;101009.25;5032865;28;20574;-71
2022/05/16 11:44:00;;;;;;;0.10;0.10;;;;;;;25.14;31.27;101013.22;5034128;28;20217;-72
2022/05/16 11:46:54;;;;;;;0.40;0.30;;;;;;;25.20;32.46;101003.03;5038445;28;20716;-70
2022/05/16 11:49:37;;;;;;;0.20;0.13;;;;;;;25.21;30.54;101000.22;5034658;28;20246;-70
2022/05/16 11:52:13;;;;;;;0.35;0.30;;;;;;;25.25;31.74;100996.34;5034588;28;20346;-72
2022/05/16 11:54:47;;;;;;;0.13;0.13;;;;;;;25.37;31.88;100991.00;5035779;28;20306;-72
2022/05/16 12:03:15;;;;;;;0.10;0.10;;;;;;;25.72;30.36;100988.03;5038846;28;20276;-72
2022/05/16 12:05:44;;;;;;;0.15;0.15;;;;;;;25.71;31.71;100994.34;5032562;28;20293;-72
2022/05/16 12:08:44;;;;;;;0.15;0.10;;;;;;;25.72;30.24;100985.38;5035630;28;20200;-72
2022/05/16 12:11:27;;;;;;;2.17;0.20;;;;;;;25.70;28.92;100987.31;5035521;28;20266;-72
2022/05/16 12:14:22;;;;;;;6.03;0.40;;;;;;;25.63;29.22;100988.81;5032382;28;20929;-72
2022/05/16 12:16:55;;;;;;;0.10;0.10;;;;;;;25.45;29.14;100977.84;5034611;28;20257;-72
2022/05/16 12:19:29;;;;;;;0.57;0.47;;;;;;;25.60;31.42;100978.41;5036644;28;20219;-72
2022/05/16 12:21:59;;;;;;;0.38;0.38;;;;;;;25.62;29.69;100969.25;5032077;28;20198;-71
2022/05/16 12:24:33;;;;;;;0.22;0.22;;;;;;;25.79;30.97;100977.69;5034582;28;20191;-72
2022/05/16 12:27:12;;;;;;;0.20;0.20;;;;;;;25.91;29.33;100979.31;5030656;28;20204;-72
2022/05/16 12:29:52;;;;;;;0.10;0.10;;;;;;;25.80;29.05;100969.53;5032629;28;20250;-71
2022/05/16 12:32:57;;;;;;;0.10;0.10;;;;;;;25.80;29.00;100972.19;5035959;28;20206;-69
2022/05/16 12:35:52;;;;;;;0.30;0.30;;;;;;;25.47;29.52;100965.22;5037209;28;20741;-71
2022/05/16 12:38:29;;;;;;;0.10;0.10;;;;;;;25.53;29.91;100969.22;5039380;28;20220;-72
2022/05/16 12:41:44;;;;;;;0.17;0.17;;;;;;;25.67;29.10;100958.22;5035759;28;20224;-70
2022/05/16 12:45:02;;;;;;;0.45;0.25;;;;;;;25.82;29.95;100961.38;5031792;28;20566;-72
2022/05/16 12:48:13;;;;;;;0.10;0.10;;;;;;;25.89;29.35;100959.88;5015996;28;20679;-70
2022/05/16 12:51:39;;;;;;;0.65;0.50;;;;;;;26.08;29.51;100953.84;5035927;28;20253;-71
2022/05/16 12:54:30;;;;;;;0.50;0.40;;;;;;;26.23;28.19;100951.66;4960067;28;20228;-72
2022/05/16 12:57:04;;;;;;;0.10;0.10;;;;;;;26.11;27.58;100953.56;4975824;28;20198;-71
2022/05/16 12:59:48;;;;;;;0.20;0.20;;;;;;;25.91;27.95;100941.06;5021661;28;20269;-70